createdAt,value
2018-11-29T00:00:27.295Z,95529.47
2018-11-29T00:02:55.971Z,95531.59
2018-11-29T00:05:24.721Z,95537.80
2018-11-29T00:07:53.451Z,95542.97
2018-11-29T00:10:22.162Z,95540.96
2018-11-29T00:12:50.843Z,95555.23
2018-11-29T00:15:19.453Z,95553.19
2018-11-29T00:17:48.180Z,95557.74
2018-11-29T00:20:17.809Z,95559.86
2018-11-29T00:22:47.295Z,95561.75
2018-11-29T00:25:17.820Z,95561.02
2018-11-29T00:27:46.617Z,95560.83
2018-11-29T00:30:16.455Z,95561.75
2018-11-29T00:32:45.135Z,95570.13
2018-11-29T00:35:14.644Z,95572.67
2018-11-29T00:37:43.419Z,95570.73
2018-11-29T00:40:15.917Z,95567.84
2018-11-29T00:42:44.576Z,95570.34
2018-11-29T00:45:15.408Z,95575.02
2018-11-29T00:47:44.427Z,95576.91
2018-11-29T00:50:14.054Z,95576.91
2018-11-29T00:52:43.744Z,95570.42
2018-11-29T00:55:13.784Z,95577.56
2018-11-29T00:57:42.423Z,95581.46
2018-11-29T01:00:21.862Z,95584.66
2018-11-29T01:02:50.603Z,95583.13
2018-11-29T01:05:19.327Z,95579.30
2018-11-29T01:07:48.054Z,95587.59
2018-11-29T01:10:17.380Z,95593.56
2018-11-29T01:12:46.526Z,95597.31
2018-11-29T01:15:16.173Z,95597.74
2018-11-29T01:17:45.704Z,95606.00
2018-11-29T01:20:15.371Z,95606.00
2018-11-29T01:22:44.090Z,95602.09
2018-11-29T01:25:13.643Z,95604.25
2018-11-29T01:27:43.066Z,95605.06
2018-11-29T01:30:14.654Z,95606.34
2018-11-29T01:32:43.401Z,95604.83
2018-11-29T01:35:13.097Z,95602.09
2018-11-29T01:37:41.795Z,95604.38
2018-11-29T01:40:17.798Z,95605.64
2018-11-29T01:42:49.576Z,95610.83
2018-11-29T01:45:18.263Z,95606.53
2018-11-29T01:47:46.930Z,95610.39
2018-11-29T01:50:15.637Z,95609.47
2018-11-29T01:52:44.345Z,95611.63
2018-11-29T01:55:12.990Z,95608.08
2018-11-29T01:57:41.686Z,95606.31
2018-11-29T02:00:12.973Z,95603.36
2018-11-29T02:02:41.676Z,95608.45
2018-11-29T02:05:11.347Z,95612.47
2018-11-29T02:07:40.024Z,95616.48
2018-11-29T02:10:17.700Z,95617.84
2018-11-29T02:12:46.413Z,95620.66
2018-11-29T02:15:15.186Z,95626.17
2018-11-29T02:17:43.960Z,95622.39
2018-11-29T02:20:17.708Z,95617.30
2018-11-29T02:22:46.587Z,95621.24
2018-11-29T02:25:15.384Z,95622.98
2018-11-29T02:27:44.034Z,95616.80
2018-11-29T02:30:19.869Z,95624.80
2018-11-29T02:32:48.748Z,95618.08
2018-11-29T02:35:17.637Z,95620.42
2018-11-29T02:37:46.309Z,95622.16
2018-11-29T02:40:15.961Z,95626.98
2018-11-29T02:42:44.896Z,95630.20
2018-11-29T02:45:15.721Z,95626.87
2018-11-29T02:47:44.420Z,95628.53
2018-11-29T02:50:13.213Z,95629.84
2018-11-29T02:52:41.815Z,95634.94
2018-11-29T02:55:11.521Z,95640.53
2018-11-29T02:57:40.614Z,95633.70
2018-11-29T03:00:13.844Z,95633.89
2018-11-29T03:02:42.655Z,95639.56
2018-11-29T03:05:11.517Z,95648.67
2018-11-29T03:07:40.153Z,95644.31
2018-11-29T03:10:10.227Z,95645.28
2018-11-29T03:12:38.963Z,95653.08
2018-11-29T03:15:15.093Z,95653.14
2018-11-29T03:17:44.277Z,95651.06
2018-11-29T03:20:14.812Z,95658.28
2018-11-29T03:22:43.615Z,95659.29
2018-11-29T03:25:13.230Z,95663.95
2018-11-29T03:27:41.960Z,95660.95
2018-11-29T03:30:16.973Z,95663.30
2018-11-29T03:32:45.668Z,95670.09
2018-11-29T03:35:14.896Z,95672.09
2018-11-29T03:37:43.617Z,95678.39
2018-11-29T03:40:14.331Z,95677.63
2018-11-29T03:42:43.077Z,95681.59
2018-11-29T03:45:13.064Z,95686.61
2018-11-29T03:47:41.791Z,95691.36
2018-11-29T03:50:12.758Z,95694.25
2018-11-29T03:52:41.397Z,95699.77
2018-11-29T03:55:10.631Z,95708.06
2018-11-29T03:57:39.822Z,95707.05
2018-11-29T04:00:12.084Z,95708.14
2018-11-29T04:02:40.735Z,95705.28
2018-11-29T04:05:09.465Z,95708.83
2018-11-29T04:07:38.198Z,95715.97
2018-11-29T04:10:09.026Z,95719.94
2018-11-29T04:12:37.694Z,95715.10
2018-11-29T04:15:07.248Z,95719.28
2018-11-29T04:17:40.619Z,95724.44
2018-11-29T04:20:05.953Z,95731.51
2018-11-29T04:22:34.627Z,95732.30
2018-11-29T04:25:03.337Z,95732.66
2018-11-29T04:27:31.986Z,95736.30
2018-11-29T04:30:00.626Z,95738.67
2018-11-29T04:32:29.286Z,95743.62
2018-11-29T04:34:58.019Z,95743.87
2018-11-29T04:37:26.679Z,95740.75
2018-11-29T04:39:55.290Z,95750.30
2018-11-29T04:42:24.506Z,95753.66
2018-11-29T04:44:53.179Z,95756.84
2018-11-29T04:47:21.881Z,95762.21
2018-11-29T04:49:50.614Z,95759.66
2018-11-29T04:52:19.262Z,95763.20
2018-11-29T04:54:47.930Z,95773.29
2018-11-29T04:57:16.569Z,95776.02
2018-11-29T04:59:45.184Z,95782.33
2018-11-29T05:02:13.878Z,95784.49
2018-11-29T05:04:42.557Z,95782.20
2018-11-29T05:07:11.156Z,95783.53
2018-11-29T05:09:39.794Z,95775.05
2018-11-29T05:12:08.567Z,95779.25
2018-11-29T05:14:37.236Z,95784.34
2018-11-29T05:17:05.959Z,95788.70
2018-11-29T05:19:34.630Z,95797.64
2018-11-29T05:22:03.282Z,95800.81
2018-11-29T05:24:31.936Z,95795.09
2018-11-29T05:27:00.605Z,95807.16
2018-11-29T05:29:29.403Z,95801.54
2018-11-29T05:31:58.056Z,95805.11
2018-11-29T05:34:26.780Z,95810.06
2018-11-29T05:36:55.401Z,95815.47
2018-11-29T05:39:24.282Z,95825.98
2018-11-29T05:41:52.924Z,95825.09
2018-11-29T05:44:21.586Z,95833.37
2018-11-29T05:46:50.431Z,95830.69
2018-11-29T05:49:19.100Z,95841.47
2018-11-29T05:51:47.714Z,95841.19
2018-11-29T05:54:16.342Z,95846.33
2018-11-29T05:56:45.013Z,95849.20
2018-11-29T05:59:13.665Z,95855.73
2018-11-29T06:01:44.503Z,95852.87
2018-11-29T06:04:13.190Z,95861.22
2018-11-29T06:06:41.869Z,95861.73
2018-11-29T06:09:11.023Z,95872.28
2018-11-29T06:11:39.800Z,95867.70
2018-11-29T06:14:08.898Z,95874.96
2018-11-29T06:16:38.230Z,95882.75
2018-11-29T06:19:08.337Z,95886.44
2018-11-29T06:21:36.999Z,95888.56
2018-11-29T06:24:05.909Z,95894.30
2018-11-29T06:26:34.524Z,95897.24
2018-11-29T06:29:03.523Z,95900.05
2018-11-29T06:31:32.180Z,95899.06
2018-11-29T06:34:00.963Z,95899.94
2018-11-29T06:36:29.644Z,95902.33
2018-11-29T06:38:58.306Z,95908.63
2018-11-29T06:41:27.002Z,95906.54
2018-11-29T06:43:55.654Z,95909.34
2018-11-29T06:46:24.307Z,95916.52
2018-11-29T06:48:52.891Z,95914.92
2018-11-29T06:51:21.553Z,95917.67
2018-11-29T06:53:55.548Z,95922.89
2018-11-29T06:56:24.240Z,95924.70
2018-11-29T06:58:53.467Z,95917.63
2018-11-29T07:01:22.131Z,95919.31
2018-11-29T07:03:50.859Z,95925.55
2018-11-29T07:06:19.500Z,95923.13
2018-11-29T07:08:48.958Z,95924.55
2018-11-29T07:11:17.580Z,95935.31
2018-11-29T07:13:46.175Z,95934.13
2018-11-29T07:16:14.864Z,95931.27
2018-11-29T07:18:43.505Z,95937.88
2018-11-29T07:21:23.185Z,95937.89
2018-11-29T07:23:51.911Z,95943.27
2018-11-29T07:26:20.574Z,95943.63
2018-11-29T07:28:49.578Z,95950.70
2018-11-29T07:31:18.212Z,95948.79
2018-11-29T07:33:46.944Z,95947.91
2018-11-29T07:36:15.659Z,95949.04
2018-11-29T07:38:44.315Z,95945.42
2018-11-29T07:41:13.055Z,95950.27
2018-11-29T07:43:41.703Z,95948.79
2018-11-29T07:46:10.408Z,95952.25
2018-11-29T07:48:39.056Z,95950.00
2018-11-29T07:51:07.765Z,95952.63
2018-11-29T07:53:36.444Z,95956.00
2018-11-29T07:56:05.159Z,95950.11
2018-11-29T07:58:33.860Z,95956.99
2018-11-29T08:01:02.517Z,95957.95
2018-11-29T08:03:31.199Z,95952.70
2018-11-29T08:05:59.831Z,95956.17
2018-11-29T08:08:28.528Z,95959.39
2018-11-29T08:10:57.237Z,95961.52
2018-11-29T08:13:25.864Z,95954.80
2018-11-29T08:15:54.493Z,95954.03
2018-11-29T08:18:23.171Z,95957.12
2018-11-29T08:20:51.825Z,95960.63
2018-11-29T08:23:20.523Z,95952.83
2018-11-29T08:25:49.146Z,95960.48
2018-11-29T08:28:17.892Z,95960.66
2018-11-29T08:30:46.561Z,95958.38
2018-11-29T08:33:15.164Z,95960.67
2018-11-29T08:35:43.878Z,95966.94
2018-11-29T08:38:12.574Z,95963.92
2018-11-29T08:40:41.181Z,95972.23
2018-11-29T08:43:09.815Z,95970.30
2018-11-29T08:45:38.469Z,95969.72
2018-11-29T08:48:07.744Z,95959.82
2018-11-29T08:50:36.501Z,95965.03
2018-11-29T08:53:05.501Z,95961.44
2018-11-29T08:55:34.209Z,95957.48
2018-11-29T08:58:02.822Z,95962.72
2018-11-29T09:00:31.524Z,95962.20
2018-11-29T09:03:00.268Z,95955.74
2018-11-29T09:05:33.829Z,95954.00
2018-11-29T09:07:57.608Z,95951.69
2018-11-29T09:10:31.596Z,95952.27
2018-11-29T09:12:55.176Z,95957.02
2018-11-29T09:15:24.118Z,95954.74
2018-11-29T09:17:52.744Z,95953.08
2018-11-29T09:20:22.298Z,95953.39
2018-11-29T09:22:50.914Z,95950.58
2018-11-29T09:25:21.628Z,95951.96
2018-11-29T09:27:50.339Z,95951.83
2018-11-29T09:30:20.904Z,95952.27
2018-11-29T09:32:50.521Z,95955.72
2018-11-29T09:35:19.239Z,95955.41
2018-11-29T09:37:47.945Z,95951.61
2018-11-29T09:40:18.453Z,95954.92
2018-11-29T09:42:47.264Z,95944.14
2018-11-29T09:45:20.794Z,95943.70
2018-11-29T09:47:50.783Z,95938.91
2018-11-29T09:50:19.538Z,95929.56
2018-11-29T09:52:48.227Z,95923.34
2018-11-29T09:55:17.806Z,95924.61
2018-11-29T09:57:47.304Z,95929.30
2018-11-29T10:00:29.137Z,95922.45
2018-11-29T10:03:08.392Z,95920.80
2018-11-29T10:05:37.203Z,95919.62
2018-11-29T10:08:11.809Z,95919.73
2018-11-29T10:10:36.034Z,95915.80
2018-11-29T10:13:05.589Z,95914.63
2018-11-29T10:15:34.211Z,95915.63
2018-11-29T10:18:02.960Z,95912.63
2018-11-29T10:20:44.589Z,95905.06
2018-11-29T10:23:13.292Z,95908.44
2018-11-29T10:25:42.267Z,95908.28
2018-11-29T10:28:14.186Z,95902.77
2018-11-29T10:30:52.209Z,95904.30
2018-11-29T10:33:21.011Z,95905.48
2018-11-29T10:35:49.710Z,95911.73
2018-11-29T10:38:18.368Z,95907.38
2018-11-29T10:40:47.016Z,95910.53
2018-11-29T10:43:15.689Z,95907.16
2018-11-29T10:45:44.380Z,95911.18
2018-11-29T10:48:16.448Z,95911.80
2018-11-29T10:50:45.131Z,95905.02
2018-11-29T10:53:13.836Z,95905.69
2018-11-29T10:55:42.503Z,95904.51
2018-11-29T10:58:11.130Z,95902.98
2018-11-29T11:00:45.089Z,95903.39
2018-11-29T11:03:20.665Z,95902.05
2018-11-29T11:05:51.415Z,95906.86
2018-11-29T11:08:20.680Z,95914.13
2018-11-29T11:10:49.465Z,95913.73
2018-11-29T11:13:18.093Z,95913.22
2018-11-29T11:15:46.763Z,95908.88
2018-11-29T11:18:16.017Z,95904.56
2018-11-29T11:20:44.748Z,95912.56
2018-11-29T11:23:13.395Z,95907.07
2018-11-29T11:25:43.264Z,95906.80
2018-11-29T11:28:11.932Z,95908.73
2018-11-29T11:30:42.559Z,95906.84
2018-11-29T11:33:11.302Z,95906.36
2018-11-29T11:35:40.052Z,95901.20
2018-11-29T11:38:09.767Z,95907.83
2018-11-29T11:40:38.455Z,95906.14
2018-11-29T11:43:07.786Z,95902.63
2018-11-29T11:45:36.490Z,95907.11
2018-11-29T11:48:05.626Z,95902.88
2018-11-29T11:50:34.320Z,95900.06
2018-11-29T11:53:04.045Z,95894.55
2018-11-29T11:55:34.455Z,95891.02
2018-11-29T11:58:03.102Z,95887.47
2018-11-29T12:00:32.132Z,95881.02
2018-11-29T12:03:06.149Z,95876.41
2018-11-29T12:05:34.897Z,95872.52
2018-11-29T12:08:03.605Z,95869.13
2018-11-29T12:10:32.249Z,95868.31
2018-11-29T12:13:00.890Z,95861.67
2018-11-29T12:15:30.379Z,95868.56
2018-11-29T12:17:59.052Z,95868.20
2018-11-29T12:20:27.701Z,95871.02
2018-11-29T12:22:56.371Z,95867.06
2018-11-29T12:25:24.993Z,95870.28
2018-11-29T12:27:53.904Z,95873.92
2018-11-29T12:30:30.051Z,95870.66
2018-11-29T12:33:01.879Z,95873.06
2018-11-29T12:35:30.603Z,95869.95
2018-11-29T12:37:59.277Z,95865.62
2018-11-29T12:40:27.979Z,95871.73
2018-11-29T12:42:56.695Z,95873.82
2018-11-29T12:45:25.356Z,95873.59
2018-11-29T12:47:54.021Z,95871.16
2018-11-29T12:50:24.885Z,95872.47
2018-11-29T12:52:53.572Z,95873.16
2018-11-29T12:55:23.460Z,95865.27
2018-11-29T12:58:04.642Z,95860.63
2018-11-29T13:00:22.835Z,95859.55
2018-11-29T13:02:59.221Z,95868.34
2018-11-29T13:05:28.800Z,95861.42
2018-11-29T13:07:57.673Z,95866.19
2018-11-29T13:10:27.481Z,95859.86
2018-11-29T13:12:56.232Z,95866.94
2018-11-29T13:15:27.301Z,95862.55
2018-11-29T13:17:56.541Z,95861.80
2018-11-29T13:20:25.183Z,95863.42
2018-11-29T13:22:53.859Z,95866.66
2018-11-29T13:25:23.667Z,95864.92
2018-11-29T13:27:52.408Z,95865.44
2018-11-29T13:30:21.967Z,95864.62
2018-11-29T13:32:52.410Z,95862.81
2018-11-29T13:35:30.964Z,95866.09
2018-11-29T13:38:02.041Z,95868.33
2018-11-29T13:40:30.660Z,95876.15
2018-11-29T13:42:59.368Z,95877.83
2018-11-29T13:45:28.045Z,95884.13
2018-11-29T13:47:56.706Z,95878.15
2018-11-29T13:50:25.337Z,95877.37
2018-11-29T13:52:54.132Z,95877.63
2018-11-29T13:55:22.825Z,95873.05
2018-11-29T13:57:51.729Z,95877.05
2018-11-29T14:00:21.396Z,95878.86
2018-11-29T14:02:51.496Z,95877.84
2018-11-29T14:05:20.426Z,95874.12
2018-11-29T14:07:49.437Z,95875.22
2018-11-29T14:10:20.235Z,95875.99
2018-11-29T14:12:49.921Z,95875.78
2018-11-29T14:15:20.927Z,95874.44
2018-11-29T14:17:49.739Z,95872.48
2018-11-29T14:20:18.450Z,95868.77
2018-11-29T14:22:47.181Z,95868.77
2018-11-29T14:25:16.756Z,95871.70
2018-11-29T14:27:49.903Z,95874.83
2018-11-29T14:30:20.743Z,95876.87
2018-11-29T14:32:49.556Z,95874.95
2018-11-29T14:35:18.318Z,95883.35
2018-11-29T14:37:47.058Z,95886.86
2018-11-29T14:40:20.049Z,95883.81
2018-11-29T14:42:48.765Z,95884.38
2018-11-29T14:45:18.615Z,95881.83
2018-11-29T14:47:47.309Z,95889.38
2018-11-29T14:50:18.508Z,95891.11
2018-11-29T14:52:47.280Z,95889.37
2018-11-29T14:55:16.086Z,95891.44
2018-11-29T14:57:44.877Z,95893.29
2018-11-29T15:00:14.174Z,95893.92
2018-11-29T15:02:43.422Z,95897.38
2018-11-29T15:05:44.351Z,95897.12
2018-11-29T15:08:13.155Z,95891.38
2018-11-29T15:10:41.857Z,95895.89
2018-11-29T15:13:12.262Z,95891.84
2018-11-29T15:15:42.553Z,95890.83
2018-11-29T15:18:12.055Z,95888.81
2018-11-29T15:20:48.470Z,95894.13
2018-11-29T15:23:19.353Z,95898.23
2018-11-29T15:25:48.185Z,95893.18
2018-11-29T15:28:17.179Z,95889.75
2018-11-29T15:30:45.950Z,95888.42
2018-11-29T15:33:14.722Z,95891.68
2018-11-29T15:35:43.542Z,95897.88
2018-11-29T15:38:12.334Z,95897.26
2018-11-29T15:40:41.194Z,95897.16
2018-11-29T15:43:09.911Z,95891.52
2018-11-29T15:45:38.684Z,95908.57
2018-11-29T15:48:07.502Z,95901.49
2018-11-29T15:50:36.396Z,95904.66
2018-11-29T15:53:05.506Z,95905.41
2018-11-29T15:55:34.367Z,95910.44
2018-11-29T15:58:03.210Z,95915.91
2018-11-29T16:00:32.485Z,95917.73
2018-11-29T16:03:03.596Z,95916.02
2018-11-29T16:05:32.566Z,95919.41
2018-11-29T16:08:01.214Z,95918.69
2018-11-29T16:10:29.943Z,95919.95
2018-11-29T16:12:58.814Z,95925.64
2018-11-29T16:15:28.627Z,95920.41
2018-11-29T16:17:57.448Z,95923.22
2018-11-29T16:20:31.359Z,95920.41
2018-11-29T16:23:00.228Z,95917.69
2018-11-29T16:25:28.986Z,95922.02
2018-11-29T16:27:57.723Z,95924.72
2018-11-29T16:30:31.861Z,95923.05
2018-11-29T16:33:03.308Z,95923.84
2018-11-29T16:35:32.995Z,95926.33
2018-11-29T16:38:01.835Z,95929.08
2018-11-29T16:40:30.520Z,95922.60
2018-11-29T16:42:59.345Z,95927.02
2018-11-29T16:45:28.183Z,95930.63
2018-11-29T16:47:56.952Z,95931.89
2018-11-29T16:50:25.771Z,95931.34
2018-11-29T16:52:54.698Z,95933.79
2018-11-29T16:55:23.530Z,95922.45
2018-11-29T17:00:40.961Z,95921.63
2018-11-29T17:03:09.996Z,95917.30
2018-11-29T17:05:38.784Z,95921.75
2018-11-29T17:08:08.030Z,95925.28
2018-11-29T17:10:36.869Z,95928.97
2018-11-29T17:13:08.293Z,95929.45
2018-11-29T17:15:36.963Z,95921.95
2018-11-29T17:18:05.840Z,95931.52
2018-11-29T17:20:37.675Z,95932.63
2018-11-29T17:23:08.131Z,95933.51
2018-11-29T17:25:36.801Z,95931.34
2018-11-29T17:28:06.042Z,95934.66
2018-11-29T17:30:34.796Z,95933.92
2018-11-29T17:33:03.631Z,95923.03
2018-11-29T17:35:32.381Z,95929.39
2018-11-29T17:38:01.341Z,95924.75
2018-11-29T17:40:30.161Z,95927.03
2018-11-29T17:42:58.978Z,95926.47
2018-11-29T17:45:29.774Z,95925.23
2018-11-29T17:47:59.693Z,95930.20
2018-11-29T17:50:33.946Z,95926.59
2018-11-29T17:53:02.763Z,95930.29
2018-11-29T17:55:31.993Z,95927.20
2018-11-29T17:58:00.852Z,95922.21
2018-11-29T18:00:34.210Z,95924.30
2018-11-29T18:03:04.900Z,95918.33
2018-11-29T18:05:33.585Z,95916.53
2018-11-29T18:08:02.295Z,95918.33
2018-11-29T18:10:34.617Z,95922.38
2018-11-29T18:13:07.451Z,95922.05
2018-11-29T18:15:36.724Z,95917.94
2018-11-29T18:18:05.683Z,95915.84
2018-11-29T18:20:34.454Z,95915.06
2018-11-29T18:23:03.161Z,95911.97
2018-11-29T18:25:32.041Z,95915.72
2018-11-29T18:28:00.798Z,95912.91
2018-11-29T18:30:30.090Z,95920.06
2018-11-29T18:33:00.200Z,95913.30
2018-11-29T18:35:28.906Z,95911.77
2018-11-29T18:37:57.657Z,95918.30
2018-11-29T18:40:26.390Z,95913.53
2018-11-29T18:42:58.224Z,95912.39
2018-11-29T18:45:27.085Z,95906.95
2018-11-29T18:50:21.455Z,95916.47
2018-11-29T18:52:50.357Z,95911.19
2018-11-29T18:55:19.378Z,95916.47
2018-11-29T18:57:48.341Z,95919.77
2018-11-29T19:00:21.683Z,95909.23
2018-11-29T19:02:50.405Z,95917.84
2018-11-29T19:05:19.154Z,95911.15
2018-11-29T19:07:48.039Z,95912.32
2018-11-29T19:10:17.688Z,95903.95
2018-11-29T19:12:51.112Z,95906.68
2018-11-29T19:15:20.036Z,95909.75
2018-11-29T19:17:48.901Z,95906.20
2018-11-29T19:20:17.616Z,95925.53
2018-11-29T19:22:46.413Z,95914.78
2018-11-29T19:25:17.309Z,95901.95
2018-11-29T19:27:46.042Z,95913.17
2018-11-29T19:30:20.549Z,95911.58
2018-11-29T19:32:52.076Z,95909.23
2018-11-29T19:35:20.828Z,95902.02
2018-11-29T19:37:49.630Z,95913.27
2018-11-29T19:40:18.879Z,95909.39
2018-11-29T19:42:47.598Z,95919.83
2018-11-29T19:45:16.654Z,95919.62
2018-11-29T19:47:45.707Z,95921.13
2018-11-29T19:50:17.501Z,95918.64
2018-11-29T19:56:21.163Z,95926.39
2018-11-29T19:58:49.884Z,95924.06
2018-11-29T20:01:18.685Z,95926.88
2018-11-29T20:03:47.508Z,95920.81
2018-11-29T20:06:16.327Z,95919.94
2018-11-29T20:08:45.755Z,95924.81
2018-11-29T20:11:14.710Z,95930.16
2018-11-29T20:13:43.463Z,95935.61
2018-11-29T20:16:12.227Z,95930.09
2018-11-29T20:18:41.015Z,95924.48
2018-11-29T20:21:10.082Z,95930.63
2018-11-29T20:23:38.831Z,95930.91
2018-11-29T20:26:07.826Z,95925.89
2018-11-29T20:28:36.696Z,95930.91
2018-11-29T20:31:06.095Z,95932.08
2018-11-29T20:33:34.839Z,95927.87
2018-11-29T20:36:03.714Z,95926.69
2018-11-29T20:38:32.451Z,95924.34
2018-11-29T20:41:03.528Z,95926.88
2018-11-29T20:43:32.205Z,95916.58
2018-11-29T20:46:01.062Z,95914.66
2018-11-29T20:48:30.702Z,95917.23
2018-11-29T20:51:00.818Z,95912.16
2018-11-29T20:53:32.512Z,95911.95
2018-11-29T20:56:01.335Z,95914.23
2018-11-29T20:58:30.112Z,95918.49
2018-11-29T21:00:58.836Z,95914.75
2018-11-29T21:03:30.850Z,95911.67
2018-11-29T21:05:59.726Z,95915.70
2018-11-29T21:08:28.421Z,95912.15
2018-11-29T21:10:57.166Z,95909.80
2018-11-29T21:13:26.021Z,95901.77
2018-11-29T21:15:54.826Z,95905.80
2018-11-29T21:18:23.606Z,95905.66
2018-11-29T21:20:52.360Z,95901.37
2018-11-29T21:23:21.027Z,95895.76
2018-11-29T21:25:49.862Z,95895.61
2018-11-29T21:28:18.642Z,95892.98
2018-11-29T21:30:47.406Z,95895.08
2018-11-29T21:33:16.172Z,95896.16
2018-11-29T21:35:44.924Z,95892.78
2018-11-29T21:38:16.906Z,95886.33
2018-11-29T21:40:49.658Z,95880.81
2018-11-29T21:43:18.360Z,95877.94
2018-11-29T21:45:47.154Z,95880.94
2018-11-29T21:48:16.205Z,95873.75
2018-11-29T21:50:44.921Z,95868.31
2018-11-29T21:53:13.702Z,95868.17
2018-11-29T21:55:42.477Z,95870.22
2018-11-29T21:58:11.194Z,95864.25
2018-11-29T22:00:40.063Z,95867.80
2018-11-29T22:03:08.759Z,95864.00
2018-11-29T22:05:37.524Z,95867.81
2018-11-29T22:08:06.237Z,95867.70
2018-11-29T22:10:35.032Z,95862.92
2018-11-29T22:13:03.779Z,95864.93
2018-11-29T22:15:32.493Z,95857.75
2018-11-29T22:18:32.293Z,95853.08
2018-11-29T22:21:02.338Z,95851.11
2018-11-29T22:23:31.983Z,95843.62
2018-11-29T22:26:01.691Z,95831.98
2018-11-29T22:28:30.898Z,95832.56
2018-11-29T22:30:59.734Z,95829.16
2018-11-29T22:33:28.610Z,95826.22
2018-11-29T22:35:57.569Z,95821.38
2018-11-29T22:38:26.298Z,95823.29
2018-11-29T22:40:55.060Z,95817.88
2018-11-29T22:43:23.962Z,95810.11
2018-11-29T22:45:52.730Z,95813.45
2018-11-29T22:48:21.469Z,95814.65
2018-11-29T22:50:50.265Z,95817.88
2018-11-29T22:53:19.014Z,95813.16
2018-11-29T22:55:47.804Z,95813.51
2018-11-29T22:58:16.649Z,95806.70
2018-11-29T23:00:51.754Z,95810.85
2018-11-29T23:03:20.622Z,95809.86
2018-11-29T23:05:49.325Z,95798.23
2018-11-29T23:08:18.212Z,95794.66
2018-11-29T23:10:47.035Z,95796.11
2018-11-29T23:13:15.855Z,95798.23
2018-11-29T23:15:44.626Z,95802.48
2018-11-29T23:18:13.421Z,95794.56
2018-11-29T23:20:42.137Z,95792.30
2018-11-29T23:23:10.922Z,95792.70
2018-11-29T23:25:39.740Z,95792.70
2018-11-29T23:28:08.468Z,95790.17
2018-11-29T23:30:37.250Z,95793.27
2018-11-29T23:33:06.005Z,95790.64
2018-11-29T23:35:34.770Z,95790.34
2018-11-29T23:38:03.433Z,95792.75
2018-11-29T23:40:32.170Z,95789.77
2018-11-29T23:43:00.918Z,95793.73
2018-11-29T23:45:29.746Z,95794.89
2018-11-29T23:47:58.503Z,95792.41
2018-11-29T23:50:27.309Z,95787.19
2018-11-29T23:52:56.020Z,95790.06
2018-11-29T23:55:24.691Z,95793.39
2018-11-29T23:57:53.450Z,95786.94
